sensor_id;sensor_type;location;lat;lon;timestamp;P1;durP1;ratioP1;P2;durP2;ratioP2
64966;SDS011;51710;38.732;-121.358;2022-11-03T00:01:59;2.65;;;0.40;;
64966;SDS011;51710;38.732;-121.358;2022-11-03T00:04:25;1.08;;;0.30;;
64966;SDS011;51710;38.732;-121.358;2022-11-03T00:06:52;0.55;;;0.30;;
64966;SDS011;51710;38.732;-121.358;2022-11-03T00:09:20;0.40;;;0.30;;
64966;SDS011;51710;38.732;-121.358;2022-11-03T00:11:47;1.40;;;0.50;;
64966;SDS011;51710;38.732;-121.358;2022-11-03T00:14:18;1.38;;;0.40;;
64966;SDS011;51710;38.732;-121.358;2022-11-03T00:16:45;1.15;;;0.40;;
64966;SDS011;51710;38.732;-121.358;2022-11-03T00:19:12;1.23;;;0.40;;
64966;SDS011;51710;38.732;-121.358;2022-11-03T00:21:40;1.80;;;0.28;;
64966;SDS011;51710;38.732;-121.358;2022-11-03T00:24:07;1.13;;;0.43;;
64966;SDS011;51710;38.732;-121.358;2022-11-03T00:26:34;2.13;;;0.55;;
64966;SDS011;51710;38.732;-121.358;2022-11-03T00:29:05;2.42;;;0.60;;
64966;SDS011;51710;38.732;-121.358;2022-11-03T00:31:33;2.25;;;0.50;;
64966;SDS011;51710;38.732;-121.358;2022-11-03T00:34:01;1.30;;;0.40;;
64966;SDS011;51710;38.732;-121.358;2022-11-03T00:36:30;1.52;;;0.50;;
64966;SDS011;51710;38.732;-121.358;2022-11-03T00:38:57;2.58;;;0.63;;
64966;SDS011;51710;38.732;-121.358;2022-11-03T00:41:24;2.78;;;0.60;;
64966;SDS011;51710;38.732;-121.358;2022-11-03T00:43:51;1.35;;;0.65;;
64966;SDS011;51710;38.732;-121.358;2022-11-03T00:46:18;3.20;;;0.68;;
64966;SDS011;51710;38.732;-121.358;2022-11-03T00:48:46;1.35;;;0.43;;
64966;SDS011;51710;38.732;-121.358;2022-11-03T00:51:13;2.72;;;0.60;;
64966;SDS011;51710;38.732;-121.358;2022-11-03T00:53:42;1.23;;;0.50;;
64966;SDS011;51710;38.732;-121.358;2022-11-03T00:56:11;2.38;;;1.05;;
64966;SDS011;51710;38.732;-121.358;2022-11-03T00:58:40;3.85;;;1.40;;
64966;SDS011;51710;38.732;-121.358;2022-11-03T01:01:14;3.53;;;1.70;;
64966;SDS011;51710;38.732;-121.358;2022-11-03T01:03:46;1.90;;;0.80;;
64966;SDS011;51710;38.732;-121.358;2022-11-03T01:06:34;8.73;;;2.88;;
64966;SDS011;51710;38.732;-121.358;2022-11-03T01:09:14;2.78;;;0.90;;
64966;SDS011;51710;38.732;-121.358;2022-11-03T01:12:01;1.58;;;0.80;;
64966;SDS011;51710;38.732;-121.358;2022-11-03T01:14:35;1.73;;;0.75;;
64966;SDS011;51710;38.732;-121.358;2022-11-03T01:17:07;2.15;;;1.00;;
64966;SDS011;51710;38.732;-121.358;2022-11-03T01:19:35;2.38;;;1.00;;
64966;SDS011;51710;38.732;-121.358;2022-11-03T01:22:01;1.98;;;0.90;;
64966;SDS011;51710;38.732;-121.358;2022-11-03T01:24:28;1.33;;;0.88;;
64966;SDS011;51710;38.732;-121.358;2022-11-03T01:26:54;4.70;;;1.42;;
64966;SDS011;51710;38.732;-121.358;2022-11-03T01:29:21;2.28;;;1.05;;
64966;SDS011;51710;38.732;-121.358;2022-11-03T01:31:48;2.53;;;0.75;;
64966;SDS011;51710;38.732;-121.358;2022-11-03T01:34:15;1.25;;;0.60;;
64966;SDS011;51710;38.732;-121.358;2022-11-03T01:36:43;2.50;;;1.10;;
64966;SDS011;51710;38.732;-121.358;2022-11-03T01:39:10;3.63;;;0.98;;
64966;SDS011;51710;38.732;-121.358;2022-11-03T01:41:38;2.00;;;0.80;;
64966;SDS011;51710;38.732;-121.358;2022-11-03T01:46:33;2.17;;;1.10;;
64966;SDS011;51710;38.732;-121.358;2022-11-03T01:51:49;5.70;;;1.10;;
64966;SDS011;51710;38.732;-121.358;2022-11-03T01:54:20;1.98;;;0.70;;
64966;SDS011;51710;38.732;-121.358;2022-11-03T01:56:51;3.05;;;1.58;;
64966;SDS011;51710;38.732;-121.358;2022-11-03T01:59:20;3.78;;;0.70;;
64966;SDS011;51710;38.732;-121.358;2022-11-03T02:01:48;1.95;;;0.80;;
64966;SDS011;51710;38.732;-121.358;2022-11-03T02:04:16;2.80;;;1.00;;
64966;SDS011;51710;38.732;-121.358;2022-11-03T02:06:53;2.83;;;0.90;;
64966;SDS011;51710;38.732;-121.358;2022-11-03T02:09:43;2.55;;;1.00;;
64966;SDS011;51710;38.732;-121.358;2022-11-03T02:12:09;2.50;;;0.80;;
64966;SDS011;51710;38.732;-121.358;2022-11-03T02:14:38;2.78;;;0.80;;
64966;SDS011;51710;38.732;-121.358;2022-11-03T02:17:09;2.20;;;0.70;;
64966;SDS011;51710;38.732;-121.358;2022-11-03T02:19:40;0.93;;;0.60;;
64966;SDS011;51710;38.732;-121.358;2022-11-03T02:27:31;2.38;;;0.80;;
64966;SDS011;51710;38.732;-121.358;2022-11-03T02:29:58;1.63;;;0.50;;
64966;SDS011;51710;38.732;-121.358;2022-11-03T02:32:26;1.38;;;0.73;;
64966;SDS011;51710;38.732;-121.358;2022-11-03T02:35:11;2.35;;;0.70;;
64966;SDS011;51710;38.732;-121.358;2022-11-03T02:37:42;2.58;;;0.68;;
64966;SDS011;51710;38.732;-121.358;2022-11-03T02:40:24;1.45;;;0.68;;
64966;SDS011;51710;38.732;-121.358;2022-11-03T02:42:55;0.80;;;0.50;;
64966;SDS011;51710;38.732;-121.358;2022-11-03T02:45:24;1.40;;;0.80;;
64966;SDS011;51710;38.732;-121.358;2022-11-03T02:47:53;3.08;;;0.80;;
64966;SDS011;51710;38.732;-121.358;2022-11-03T02:50:26;1.63;;;0.75;;
64966;SDS011;51710;38.732;-121.358;2022-11-03T02:52:54;1.17;;;0.60;;
64966;SDS011;51710;38.732;-121.358;2022-11-03T02:55:33;1.17;;;0.63;;
64966;SDS011;51710;38.732;-121.358;2022-11-03T03:00:49;1.48;;;0.60;;
64966;SDS011;51710;38.732;-121.358;2022-11-03T03:03:26;2.95;;;0.60;;
64966;SDS011;51710;38.732;-121.358;2022-11-03T03:06:02;1.48;;;0.60;;
64966;SDS011;51710;38.732;-121.358;2022-11-03T03:08:37;0.60;;;0.43;;
64966;SDS011;51710;38.732;-121.358;2022-11-03T03:11:09;1.05;;;0.35;;
64966;SDS011;51710;38.732;-121.358;2022-11-03T03:13:38;2.45;;;0.50;;
64966;SDS011;51710;38.732;-121.358;2022-11-03T03:16:07;2.85;;;0.57;;
64966;SDS011;51710;38.732;-121.358;2022-11-03T03:18:58;1.65;;;0.63;;
64966;SDS011;51710;38.732;-121.358;2022-11-03T03:21:28;1.40;;;0.65;;
64966;SDS011;51710;38.732;-121.358;2022-11-03T03:26:33;1.48;;;0.60;;
64966;SDS011;51710;38.732;-121.358;2022-11-03T03:29:10;1.50;;;0.60;;
64966;SDS011;51710;38.732;-121.358;2022-11-03T03:31:42;2.35;;;0.77;;
64966;SDS011;51710;38.732;-121.358;2022-11-03T03:34:14;3.33;;;0.70;;
64966;SDS011;51710;38.732;-121.358;2022-11-03T03:36:42;1.40;;;0.60;;
64966;SDS011;51710;38.732;-121.358;2022-11-03T03:39:13;1.60;;;0.50;;
64966;SDS011;51710;38.732;-121.358;2022-11-03T03:41:41;0.65;;;0.50;;
64966;SDS011;51710;38.732;-121.358;2022-11-03T03:44:10;1.40;;;0.52;;
64966;SDS011;51710;38.732;-121.358;2022-11-03T03:46:40;0.88;;;0.50;;
64966;SDS011;51710;38.732;-121.358;2022-11-03T03:49:16;1.85;;;0.60;;
64966;SDS011;51710;38.732;-121.358;2022-11-03T03:51:43;2.35;;;0.50;;
64966;SDS011;51710;38.732;-121.358;2022-11-03T03:54:12;1.75;;;0.70;;
64966;SDS011;51710;38.732;-121.358;2022-11-03T03:56:40;1.65;;;0.60;;
64966;SDS011;51710;38.732;-121.358;2022-11-03T03:59:13;1.52;;;0.80;;
64966;SDS011;51710;38.732;-121.358;2022-11-03T04:01:39;1.90;;;0.85;;
64966;SDS011;51710;38.732;-121.358;2022-11-03T04:04:06;1.13;;;0.63;;
64966;SDS011;51710;38.732;-121.358;2022-11-03T04:06:32;0.90;;;0.43;;
64966;SDS011;51710;38.732;-121.358;2022-11-03T04:08:58;1.25;;;0.57;;
64966;SDS011;51710;38.732;-121.358;2022-11-03T04:11:25;1.13;;;0.60;;
64966;SDS011;51710;38.732;-121.358;2022-11-03T04:16:54;2.42;;;0.90;;
64966;SDS011;51710;38.732;-121.358;2022-11-03T04:19:39;1.95;;;0.77;;
64966;SDS011;51710;38.732;-121.358;2022-11-03T04:22:26;3.13;;;1.00;;
64966;SDS011;51710;38.732;-121.358;2022-11-03T04:24:55;2.72;;;0.80;;
64966;SDS011;51710;38.732;-121.358;2022-11-03T04:27:33;1.77;;;0.70;;
64966;SDS011;51710;38.732;-121.358;2022-11-03T04:30:12;0.52;;;0.50;;
64966;SDS011;51710;38.732;-121.358;2022-11-03T04:32:44;0.50;;;0.50;;
64966;SDS011;51710;38.732;-121.358;2022-11-03T04:35:16;0.30;;;0.30;;
64966;SDS011;51710;38.732;-121.358;2022-11-03T04:40:57;1.55;;;0.50;;
64966;SDS011;51710;38.732;-121.358;2022-11-03T04:43:33;1.38;;;0.35;;
64966;SDS011;51710;38.732;-121.358;2022-11-03T04:46:02;0.57;;;0.30;;
64966;SDS011;51710;38.732;-121.358;2022-11-03T04:48:28;2.22;;;0.50;;
64966;SDS011;51710;38.732;-121.358;2022-11-03T04:50:57;0.40;;;0.32;;
64966;SDS011;51710;38.732;-121.358;2022-11-03T04:53:27;2.92;;;0.40;;
64966;SDS011;51710;38.732;-121.358;2022-11-03T04:55:57;1.50;;;0.40;;
64966;SDS011;51710;38.732;-121.358;2022-11-03T04:58:25;0.70;;;0.40;;
64966;SDS011;51710;38.732;-121.358;2022-11-03T05:00:56;0.40;;;0.30;;
64966;SDS011;51710;38.732;-121.358;2022-11-03T05:03:26;0.50;;;0.30;;
64966;SDS011;51710;38.732;-121.358;2022-11-03T05:06:13;1.52;;;0.30;;
64966;SDS011;51710;38.732;-121.358;2022-11-03T05:08:41;0.63;;;0.50;;
64966;SDS011;51710;38.732;-121.358;2022-11-03T05:11:18;0.52;;;0.30;;
64966;SDS011;51710;38.732;-121.358;2022-11-03T05:13:47;0.20;;;0.20;;
64966;SDS011;51710;38.732;-121.358;2022-11-03T05:16:14;0.57;;;0.57;;
64966;SDS011;51710;38.732;-121.358;2022-11-03T05:18:42;0.10;;;0.10;;
64966;SDS011;51710;38.732;-121.358;2022-11-03T05:21:12;0.20;;;0.20;;
64966;SDS011;51710;38.732;-121.358;2022-11-03T05:24:17;0.28;;;0.20;;
64966;SDS011;51710;38.732;-121.358;2022-11-03T05:26:37;0.22;;;0.22;;
64966;SDS011;51710;38.732;-121.358;2022-11-03T05:31:52;1.30;;;0.25;;
64966;SDS011;51710;38.732;-121.358;2022-11-03T05:36:59;0.30;;;0.30;;
64966;SDS011;51710;38.732;-121.358;2022-11-03T05:39:46;0.60;;;0.40;;
64966;SDS011;51710;38.732;-121.358;2022-11-03T05:42:21;0.40;;;0.40;;
64966;SDS011;51710;38.732;-121.358;2022-11-03T05:44:55;0.28;;;0.28;;
64966;SDS011;51710;38.732;-121.358;2022-11-03T05:47:26;1.95;;;0.30;;
64966;SDS011;51710;38.732;-121.358;2022-11-03T05:50:08;1.25;;;0.30;;
64966;SDS011;51710;38.732;-121.358;2022-11-03T05:52:47;1.17;;;0.43;;
64966;SDS011;51710;38.732;-121.358;2022-11-03T05:58:19;0.80;;;0.35;;
64966;SDS011;51710;38.732;-121.358;2022-11-03T06:00:49;1.63;;;0.30;;
64966;SDS011;51710;38.732;-121.358;2022-11-03T06:03:16;2.65;;;0.40;;
64966;SDS011;51710;38.732;-121.358;2022-11-03T06:05:54;0.28;;;0.20;;
64966;SDS011;51710;38.732;-121.358;2022-11-03T06:08:24;0.57;;;0.28;;
64966;SDS011;51710;38.732;-121.358;2022-11-03T06:10:56;0.38;;;0.20;;
64966;SDS011;51710;38.732;-121.358;2022-11-03T06:15:57;0.45;;;0.32;;
64966;SDS011;51710;38.732;-121.358;2022-11-03T06:18:31;1.27;;;0.32;;
64966;SDS011;51710;38.732;-121.358;2022-11-03T06:21:08;0.57;;;0.25;;
64966;SDS011;51710;38.732;-121.358;2022-11-03T06:23:41;2.83;;;0.32;;
64966;SDS011;51710;38.732;-121.358;2022-11-03T06:26:18;0.43;;;0.30;;
64966;SDS011;51710;38.732;-121.358;2022-11-03T06:28:49;0.40;;;0.35;;
64966;SDS011;51710;38.732;-121.358;2022-11-03T06:31:20;1.75;;;0.35;;
64966;SDS011;51710;38.732;-121.358;2022-11-03T06:33:52;0.25;;;0.25;;
64966;SDS011;51710;38.732;-121.358;2022-11-03T06:36:21;0.93;;;0.50;;
64966;SDS011;51710;38.732;-121.358;2022-11-03T06:38:56;1.48;;;0.40;;
64966;SDS011;51710;38.732;-121.358;2022-11-03T06:41:27;1.23;;;0.30;;
64966;SDS011;51710;38.732;-121.358;2022-11-03T06:43:57;0.80;;;0.43;;
64966;SDS011;51710;38.732;-121.358;2022-11-03T06:46:27;0.95;;;0.40;;
64966;SDS011;51710;38.732;-121.358;2022-11-03T06:48:58;0.98;;;0.43;;
64966;SDS011;51710;38.732;-121.358;2022-11-03T06:51:29;3.42;;;0.60;;
64966;SDS011;51710;38.732;-121.358;2022-11-03T06:53:59;2.10;;;0.40;;
64966;SDS011;51710;38.732;-121.358;2022-11-03T06:56:29;2.70;;;0.40;;
64966;SDS011;51710;38.732;-121.358;2022-11-03T06:58:59;0.45;;;0.40;;
64966;SDS011;51710;38.732;-121.358;2022-11-03T07:01:30;1.50;;;0.70;;
64966;SDS011;51710;38.732;-121.358;2022-11-03T07:04:02;2.17;;;0.63;;
64966;SDS011;51710;38.732;-121.358;2022-11-03T07:06:46;0.47;;;0.30;;
64966;SDS011;51710;38.732;-121.358;2022-11-03T07:09:14;0.60;;;0.40;;
64966;SDS011;51710;38.732;-121.358;2022-11-03T07:11:52;0.40;;;0.20;;
64966;SDS011;51710;38.732;-121.358;2022-11-03T07:14:22;0.43;;;0.22;;
64966;SDS011;51710;38.732;-121.358;2022-11-03T07:16:53;0.20;;;0.20;;
64966;SDS011;51710;38.732;-121.358;2022-11-03T07:19:45;0.52;;;0.28;;
64966;SDS011;51710;38.732;-121.358;2022-11-03T07:22:24;0.60;;;0.30;;
64966;SDS011;51710;38.732;-121.358;2022-11-03T07:24:52;0.30;;;0.30;;
64966;SDS011;51710;38.732;-121.358;2022-11-03T07:27:29;0.40;;;0.30;;
64966;SDS011;51710;38.732;-121.358;2022-11-03T07:29:59;0.60;;;0.30;;
64966;SDS011;51710;38.732;-121.358;2022-11-03T07:32:52;0.47;;;0.28;;
64966;SDS011;51710;38.732;-121.358;2022-11-03T07:35:32;2.47;;;0.35;;
64966;SDS011;51710;38.732;-121.358;2022-11-03T07:38:02;0.43;;;0.25;;
64966;SDS011;51710;38.732;-121.358;2022-11-03T07:40:36;0.20;;;0.20;;
64966;SDS011;51710;38.732;-121.358;2022-11-03T07:43:19;1.17;;;0.30;;
64966;SDS011;51710;38.732;-121.358;2022-11-03T07:48:24;0.30;;;0.20;;
64966;SDS011;51710;38.732;-121.358;2022-11-03T07:50:57;0.20;;;0.20;;
64966;SDS011;51710;38.732;-121.358;2022-11-03T07:53:34;1.45;;;0.30;;
64966;SDS011;51710;38.732;-121.358;2022-11-03T07:58:58;0.30;;;0.30;;
64966;SDS011;51710;38.732;-121.358;2022-11-03T08:01:42;0.20;;;0.20;;
64966;SDS011;51710;38.732;-121.358;2022-11-03T08:04:16;0.40;;;0.30;;
64966;SDS011;51710;38.732;-121.358;2022-11-03T08:06:54;0.20;;;0.20;;
64966;SDS011;51710;38.732;-121.358;2022-11-03T08:09:20;1.00;;;0.30;;
64966;SDS011;51710;38.732;-121.358;2022-11-03T08:11:47;0.52;;;0.30;;
64966;SDS011;51710;38.732;-121.358;2022-11-03T08:14:14;0.88;;;0.40;;
64966;SDS011;51710;38.732;-121.358;2022-11-03T08:16:41;0.17;;;0.17;;
64966;SDS011;51710;38.732;-121.358;2022-11-03T08:19:07;0.43;;;0.32;;
64966;SDS011;51710;38.732;-121.358;2022-11-03T08:21:34;1.85;;;0.40;;
64966;SDS011;51710;38.732;-121.358;2022-11-03T08:24:00;0.20;;;0.20;;
64966;SDS011;51710;38.732;-121.358;2022-11-03T08:26:27;0.47;;;0.38;;
64966;SDS011;51710;38.732;-121.358;2022-11-03T08:28:53;0.45;;;0.28;;
64966;SDS011;51710;38.732;-121.358;2022-11-03T08:31:20;0.35;;;0.30;;
64966;SDS011;51710;38.732;-121.358;2022-11-03T08:33:46;0.82;;;0.38;;
64966;SDS011;51710;38.732;-121.358;2022-11-03T08:36:13;0.28;;;0.28;;
64966;SDS011;51710;38.732;-121.358;2022-11-03T08:38:39;0.30;;;0.30;;
64966;SDS011;51710;38.732;-121.358;2022-11-03T08:41:06;0.47;;;0.30;;
64966;SDS011;51710;38.732;-121.358;2022-11-03T08:43:32;0.30;;;0.20;;
64966;SDS011;51710;38.732;-121.358;2022-11-03T08:45:59;0.30;;;0.30;;
64966;SDS011;51710;38.732;-121.358;2022-11-03T08:48:25;0.20;;;0.20;;
64966;SDS011;51710;38.732;-121.358;2022-11-03T08:50:53;0.20;;;0.20;;
64966;SDS011;51710;38.732;-121.358;2022-11-03T08:53:24;0.52;;;0.20;;
64966;SDS011;51710;38.732;-121.358;2022-11-03T08:55:52;0.28;;;0.20;;
64966;SDS011;51710;38.732;-121.358;2022-11-03T08:58:19;0.20;;;0.20;;
64966;SDS011;51710;38.732;-121.358;2022-11-03T09:00:46;0.30;;;0.25;;
64966;SDS011;51710;38.732;-121.358;2022-11-03T09:03:13;0.20;;;0.20;;
64966;SDS011;51710;38.732;-121.358;2022-11-03T09:05:40;0.20;;;0.20;;
64966;SDS011;51710;38.732;-121.358;2022-11-03T09:08:06;1.95;;;0.30;;
64966;SDS011;51710;38.732;-121.358;2022-11-03T09:10:33;0.20;;;0.20;;
64966;SDS011;51710;38.732;-121.358;2022-11-03T09:13:00;0.20;;;0.20;;
64966;SDS011;51710;38.732;-121.358;2022-11-03T09:15:26;0.45;;;0.30;;
64966;SDS011;51710;38.732;-121.358;2022-11-03T09:17:53;0.32;;;0.20;;
64966;SDS011;51710;38.732;-121.358;2022-11-03T09:20:19;0.50;;;0.20;;
64966;SDS011;51710;38.732;-121.358;2022-11-03T09:22:46;0.32;;;0.20;;
64966;SDS011;51710;38.732;-121.358;2022-11-03T09:25:12;1.13;;;0.35;;
64966;SDS011;51710;38.732;-121.358;2022-11-03T09:27:38;0.32;;;0.30;;
64966;SDS011;51710;38.732;-121.358;2022-11-03T09:30:05;0.70;;;0.60;;
64966;SDS011;51710;38.732;-121.358;2022-11-03T09:32:32;0.90;;;0.52;;
64966;SDS011;51710;38.732;-121.358;2022-11-03T09:34:59;2.90;;;0.50;;
64966;SDS011;51710;38.732;-121.358;2022-11-03T09:37:25;0.52;;;0.30;;
64966;SDS011;51710;38.732;-121.358;2022-11-03T09:39:52;0.57;;;0.30;;
64966;SDS011;51710;38.732;-121.358;2022-11-03T09:42:19;0.65;;;0.25;;
64966;SDS011;51710;38.732;-121.358;2022-11-03T09:44:46;0.20;;;0.20;;
64966;SDS011;51710;38.732;-121.358;2022-11-03T09:47:17;0.30;;;0.30;;
64966;SDS011;51710;38.732;-121.358;2022-11-03T09:49:49;0.38;;;0.20;;
64966;SDS011;51710;38.732;-121.358;2022-11-03T09:52:17;0.80;;;0.30;;
64966;SDS011;51710;38.732;-121.358;2022-11-03T09:54:47;0.20;;;0.20;;
64966;SDS011;51710;38.732;-121.358;2022-11-03T09:57:16;0.17;;;0.10;;
64966;SDS011;51710;38.732;-121.358;2022-11-03T09:59:43;1.27;;;0.55;;
64966;SDS011;51710;38.732;-121.358;2022-11-03T10:02:19;0.70;;;0.28;;
64966;SDS011;51710;38.732;-121.358;2022-11-03T10:04:57;0.10;;;0.10;;
64966;SDS011;51710;38.732;-121.358;2022-11-03T10:07:26;0.25;;;0.25;;
64966;SDS011;51710;38.732;-121.358;2022-11-03T10:09:55;1.45;;;0.20;;
64966;SDS011;51710;38.732;-121.358;2022-11-03T10:12:25;0.20;;;0.20;;
64966;SDS011;51710;38.732;-121.358;2022-11-03T10:14:56;0.20;;;0.20;;
64966;SDS011;51710;38.732;-121.358;2022-11-03T10:17:24;0.20;;;0.20;;
64966;SDS011;51710;38.732;-121.358;2022-11-03T10:19:55;0.22;;;0.22;;
64966;SDS011;51710;38.732;-121.358;2022-11-03T10:22:22;3.92;;;0.35;;
64966;SDS011;51710;38.732;-121.358;2022-11-03T10:24:49;1.55;;;0.30;;
64966;SDS011;51710;38.732;-121.358;2022-11-03T10:28:09;0.47;;;0.20;;
64966;SDS011;51710;38.732;-121.358;2022-11-03T10:30:53;0.50;;;0.30;;
64966;SDS011;51710;38.732;-121.358;2022-11-03T10:33:31;1.40;;;0.20;;
64966;SDS011;51710;38.732;-121.358;2022-11-03T10:38:41;0.40;;;0.20;;
64966;SDS011;51710;38.732;-121.358;2022-11-03T10:41:09;0.38;;;0.25;;
64966;SDS011;51710;38.732;-121.358;2022-11-03T10:46:54;0.10;;;0.10;;
64966;SDS011;51710;38.732;-121.358;2022-11-03T10:49:29;0.47;;;0.30;;
64966;SDS011;51710;38.732;-121.358;2022-11-03T10:52:15;0.63;;;0.28;;
64966;SDS011;51710;38.732;-121.358;2022-11-03T10:54:48;0.55;;;0.20;;
64966;SDS011;51710;38.732;-121.358;2022-11-03T10:57:16;0.30;;;0.30;;
64966;SDS011;51710;38.732;-121.358;2022-11-03T10:59:45;0.20;;;0.20;;
64966;SDS011;51710;38.732;-121.358;2022-11-03T11:02:21;0.30;;;0.28;;
64966;SDS011;51710;38.732;-121.358;2022-11-03T11:05:12;0.20;;;0.20;;
64966;SDS011;51710;38.732;-121.358;2022-11-03T11:07:46;0.75;;;0.28;;
64966;SDS011;51710;38.732;-121.358;2022-11-03T11:10:24;0.40;;;0.30;;
64966;SDS011;51710;38.732;-121.358;2022-11-03T11:18:10;0.35;;;0.25;;
64966;SDS011;51710;38.732;-121.358;2022-11-03T11:33:47;0.20;;;0.20;;
64966;SDS011;51710;38.732;-121.358;2022-11-03T11:36:21;0.25;;;0.25;;
64966;SDS011;51710;38.732;-121.358;2022-11-03T11:41:20;0.40;;;0.20;;
64966;SDS011;51710;38.732;-121.358;2022-11-03T11:58:21;1.55;;;0.30;;
64966;SDS011;51710;38.732;-121.358;2022-11-03T12:00:57;0.43;;;0.20;;
64966;SDS011;51710;38.732;-121.358;2022-11-03T12:03:27;0.68;;;0.30;;
64966;SDS011;51710;38.732;-121.358;2022-11-03T12:05:56;0.40;;;0.40;;
64966;SDS011;51710;38.732;-121.358;2022-11-03T12:08:24;0.20;;;0.20;;
64966;SDS011;51710;38.732;-121.358;2022-11-03T12:10:56;0.20;;;0.20;;
64966;SDS011;51710;38.732;-121.358;2022-11-03T12:15:59;0.30;;;0.20;;
64966;SDS011;51710;38.732;-121.358;2022-11-03T12:20:56;1.00;;;0.40;;
64966;SDS011;51710;38.732;-121.358;2022-11-03T12:23:36;1.02;;;0.40;;
64966;SDS011;51710;38.732;-121.358;2022-11-03T12:26:14;0.25;;;0.25;;
64966;SDS011;51710;38.732;-121.358;2022-11-03T12:28:44;0.60;;;0.30;;
64966;SDS011;51710;38.732;-121.358;2022-11-03T12:31:10;0.20;;;0.20;;
64966;SDS011;51710;38.732;-121.358;2022-11-03T12:33:37;0.32;;;0.30;;
64966;SDS011;51710;38.732;-121.358;2022-11-03T12:36:03;0.60;;;0.30;;
64966;SDS011;51710;38.732;-121.358;2022-11-03T12:38:30;0.73;;;0.32;;
64966;SDS011;51710;38.732;-121.358;2022-11-03T12:40:56;0.60;;;0.35;;
64966;SDS011;51710;38.732;-121.358;2022-11-03T12:43:42;0.30;;;0.30;;
64966;SDS011;51710;38.732;-121.358;2022-11-03T12:46:09;0.90;;;0.28;;
64966;SDS011;51710;38.732;-121.358;2022-11-03T12:48:36;0.65;;;0.30;;
64966;SDS011;51710;38.732;-121.358;2022-11-03T12:51:17;0.45;;;0.30;;
64966;SDS011;51710;38.732;-121.358;2022-11-03T12:53:45;3.15;;;0.43;;
64966;SDS011;51710;38.732;-121.358;2022-11-03T12:56:12;1.27;;;0.50;;
64966;SDS011;51710;38.732;-121.358;2022-11-03T12:58:40;0.30;;;0.22;;
64966;SDS011;51710;38.732;-121.358;2022-11-03T13:01:06;0.28;;;0.20;;
64966;SDS011;51710;38.732;-121.358;2022-11-03T13:03:34;0.43;;;0.40;;
64966;SDS011;51710;38.732;-121.358;2022-11-03T13:06:01;2.28;;;0.50;;
64966;SDS011;51710;38.732;-121.358;2022-11-03T13:08:31;1.42;;;0.43;;
64966;SDS011;51710;38.732;-121.358;2022-11-03T13:10:58;0.80;;;0.40;;
64966;SDS011;51710;38.732;-121.358;2022-11-03T13:13:25;0.35;;;0.35;;
64966;SDS011;51710;38.732;-121.358;2022-11-03T13:15:51;0.65;;;0.30;;
64966;SDS011;51710;38.732;-121.358;2022-11-03T13:18:18;0.32;;;0.30;;
64966;SDS011;51710;38.732;-121.358;2022-11-03T13:20:45;2.50;;;0.43;;
64966;SDS011;51710;38.732;-121.358;2022-11-03T13:23:11;0.68;;;0.43;;
64966;SDS011;51710;38.732;-121.358;2022-11-03T13:25:38;0.43;;;0.43;;
64966;SDS011;51710;38.732;-121.358;2022-11-03T13:28:04;1.35;;;0.40;;
64966;SDS011;51710;38.732;-121.358;2022-11-03T13:30:31;0.47;;;0.38;;
64966;SDS011;51710;38.732;-121.358;2022-11-03T13:32:58;0.47;;;0.30;;
64966;SDS011;51710;38.732;-121.358;2022-11-03T13:35:24;0.82;;;0.40;;
64966;SDS011;51710;38.732;-121.358;2022-11-03T13:37:50;0.73;;;0.45;;
64966;SDS011;51710;38.732;-121.358;2022-11-03T13:40:17;0.60;;;0.40;;
64966;SDS011;51710;38.732;-121.358;2022-11-03T13:42:44;0.50;;;0.40;;
64966;SDS011;51710;38.732;-121.358;2022-11-03T13:45:10;0.32;;;0.32;;
64966;SDS011;51710;38.732;-121.358;2022-11-03T13:47:37;0.65;;;0.43;;
64966;SDS011;51710;38.732;-121.358;2022-11-03T13:50:03;0.65;;;0.47;;
64966;SDS011;51710;38.732;-121.358;2022-11-03T13:52:30;1.08;;;0.65;;
64966;SDS011;51710;38.732;-121.358;2022-11-03T13:54:56;0.63;;;0.50;;
64966;SDS011;51710;38.732;-121.358;2022-11-03T13:57:22;1.10;;;0.50;;
64966;SDS011;51710;38.732;-121.358;2022-11-03T13:59:49;1.15;;;0.85;;
64966;SDS011;51710;38.732;-121.358;2022-11-03T14:02:16;1.65;;;1.00;;
64966;SDS011;51710;38.732;-121.358;2022-11-03T14:04:42;1.05;;;0.80;;
64966;SDS011;51710;38.732;-121.358;2022-11-03T14:07:09;1.50;;;1.00;;
64966;SDS011;51710;38.732;-121.358;2022-11-03T14:09:35;2.47;;;1.05;;
64966;SDS011;51710;38.732;-121.358;2022-11-03T14:12:02;1.33;;;0.93;;
64966;SDS011;51710;38.732;-121.358;2022-11-03T14:14:46;1.35;;;0.88;;
64966;SDS011;51710;38.732;-121.358;2022-11-03T14:17:13;2.05;;;1.02;;
64966;SDS011;51710;38.732;-121.358;2022-11-03T14:19:39;1.75;;;0.95;;
64966;SDS011;51710;38.732;-121.358;2022-11-03T14:22:05;1.70;;;1.20;;
64966;SDS011;51710;38.732;-121.358;2022-11-03T14:24:32;1.95;;;1.10;;
64966;SDS011;51710;38.732;-121.358;2022-11-03T14:26:58;4.30;;;1.17;;
64966;SDS011;51710;38.732;-121.358;2022-11-03T14:29:25;2.13;;;1.20;;
64966;SDS011;51710;38.732;-121.358;2022-11-03T14:31:51;2.13;;;1.20;;
64966;SDS011;51710;38.732;-121.358;2022-11-03T14:34:17;2.17;;;1.30;;
64966;SDS011;51710;38.732;-121.358;2022-11-03T14:36:44;2.28;;;1.30;;
64966;SDS011;51710;38.732;-121.358;2022-11-03T14:39:10;3.72;;;1.40;;
64966;SDS011;51710;38.732;-121.358;2022-11-03T14:41:36;3.53;;;1.38;;
64966;SDS011;51710;38.732;-121.358;2022-11-03T14:44:21;2.22;;;1.25;;
64966;SDS011;51710;38.732;-121.358;2022-11-03T14:46:47;4.85;;;1.60;;
64966;SDS011;51710;38.732;-121.358;2022-11-03T14:49:13;3.20;;;1.33;;
64966;SDS011;51710;38.732;-121.358;2022-11-03T14:51:40;3.30;;;1.40;;
64966;SDS011;51710;38.732;-121.358;2022-11-03T14:54:07;2.10;;;1.23;;
64966;SDS011;51710;38.732;-121.358;2022-11-03T14:56:33;4.18;;;1.70;;
64966;SDS011;51710;38.732;-121.358;2022-11-03T14:58:59;3.30;;;1.35;;
64966;SDS011;51710;38.732;-121.358;2022-11-03T15:01:26;3.05;;;1.50;;
64966;SDS011;51710;38.732;-121.358;2022-11-03T15:03:52;2.83;;;1.55;;
64966;SDS011;51710;38.732;-121.358;2022-11-03T15:06:18;4.03;;;1.85;;
64966;SDS011;51710;38.732;-121.358;2022-11-03T15:08:45;2.25;;;1.38;;
64966;SDS011;51710;38.732;-121.358;2022-11-03T15:11:12;2.42;;;1.45;;
64966;SDS011;51710;38.732;-121.358;2022-11-03T15:13:38;2.53;;;1.38;;
64966;SDS011;51710;38.732;-121.358;2022-11-03T15:16:04;6.65;;;2.10;;
64966;SDS011;51710;38.732;-121.358;2022-11-03T15:18:31;2.90;;;1.95;;
64966;SDS011;51710;38.732;-121.358;2022-11-03T15:20:57;4.63;;;2.53;;
64966;SDS011;51710;38.732;-121.358;2022-11-03T15:23:23;5.85;;;2.30;;
64966;SDS011;51710;38.732;-121.358;2022-11-03T15:25:50;3.75;;;2.10;;
64966;SDS011;51710;38.732;-121.358;2022-11-03T15:28:16;9.93;;;2.30;;
64966;SDS011;51710;38.732;-121.358;2022-11-03T15:30:45;4.60;;;1.88;;
64966;SDS011;51710;38.732;-121.358;2022-11-03T15:33:13;7.78;;;1.80;;
64966;SDS011;51710;38.732;-121.358;2022-11-03T15:35:40;3.60;;;2.00;;
64966;SDS011;51710;38.732;-121.358;2022-11-03T15:38:06;5.25;;;1.65;;
64966;SDS011;51710;38.732;-121.358;2022-11-03T15:40:33;5.72;;;1.50;;
64966;SDS011;51710;38.732;-121.358;2022-11-03T15:42:59;2.78;;;1.50;;
64966;SDS011;51710;38.732;-121.358;2022-11-03T15:45:25;5.22;;;2.00;;
64966;SDS011;51710;38.732;-121.358;2022-11-03T15:47:52;2.78;;;1.63;;
64966;SDS011;51710;38.732;-121.358;2022-11-03T15:50:18;7.95;;;1.98;;
64966;SDS011;51710;38.732;-121.358;2022-11-03T15:52:45;11.52;;;2.30;;